Time;durP1;ratioP1;P1;durP2;ratioP2;P2;SDS_P1;SDS_P2;PMS_P1;PMS_P2;Temp;Humidity;BMP_temperature;BMP_pressure;BME280_temperature;BME280_humidity;BME280_pressure;Samples;Min_cycle;Max_cycle;Signal;HPM_P1;HPM_P2
2022/11/04 00:02:30;;;;;;;7.15;5.68;;;10.80;99.90;;;;;;6203328;22;20012;-86
2022/11/04 00:04:58;;;;;;;6.05;5.45;;;10.70;99.90;;;;;;6231294;23;20008;-88
2022/11/04 00:12:23;;;;;;;9.30;5.55;;;10.70;99.90;;;;;;6226796;23;20020;-87
2022/11/04 00:13:08;;;;;;;9.98;5.80;;;10.70;99.90;;;;;;6165941;23;20021;-87
2022/11/04 00:18:22;;;;;;;5.15;4.65;;;10.80;99.90;;;;;;6226299;22;20324;-86
2022/11/04 00:30:06;;;;;;;8.85;4.57;;;11.10;99.90;;;;;;6227208;23;20008;-93
2022/11/04 00:35:48;;;;;;;;;;;;;;;;;;;;;
2022/11/04 00:38:32;;;;;;;3.50;3.20;;;11.20;99.90;;;;;;6226113;23;20016;-90
2022/11/04 00:41:24;;;;;;;3.20;2.90;;;11.20;99.90;;;;;;6176435;23;20442;-91
2022/11/04 00:43:58;;;;;;;4.55;3.63;;;11.20;99.90;;;;;;6224560;23;20337;-90
2022/11/04 00:46:30;;;;;;;4.10;3.47;;;11.10;99.90;;;;;;6226702;22;20009;-91
2022/11/04 00:48:58;;;;;;;3.45;3.00;;;11.10;99.90;;;;;;6227853;23;20008;-86
2022/11/04 00:51:32;;;;;;;3.90;3.42;;;11.10;99.90;;;;;;6183460;23;20028;-91
2022/11/04 00:55:20;;;;;;;3.25;2.30;;;11.00;99.90;;;;;;6201222;23;20012;-86
2022/11/04 00:58:05;;;;;;;8.07;3.45;;;10.90;99.90;;;;;;6225240;23;20321;-90
2022/11/04 01:00:32;;;;;;;3.83;3.17;;;10.80;99.90;;;;;;6217858;23;20033;-87
2022/11/04 01:03:06;;;;;;;4.80;4.20;;;10.80;99.90;;;;;;6222468;23;20031;-90
2022/11/04 01:06:04;;;;;;;7.72;2.72;;;10.70;99.90;;;;;;6225575;23;20028;-89
2022/11/04 01:09:04;;;;;;;3.53;2.50;;;10.50;99.90;;;;;;6242696;23;20024;-92
2022/11/04 01:11:32;;;;;;;5.72;3.45;;;10.30;99.90;;;;;;6186133;23;20482;-87
2022/11/04 01:14:04;;;;;;;2.92;2.13;;;10.20;99.90;;;;;;6171634;23;20470;-89
2022/11/04 01:16:43;;;;;;;2.40;2.20;;;10.10;99.90;;;;;;6248270;23;20343;-89
2022/11/04 01:19:30;;;;;;;2.65;2.38;;;9.90;99.90;;;;;;6229022;23;20031;-90
2022/11/04 01:22:09;;;;;;;5.25;2.47;;;9.70;99.90;;;;;;6196589;23;20031;-85
2022/11/04 01:25:12;;;;;;;2.13;1.92;;;9.70;99.90;;;;;;6247287;23;20336;-90
2022/11/04 01:27:41;;;;;;;3.45;1.80;;;9.50;99.90;;;;;;6223046;23;20024;-89
2022/11/04 01:30:23;;;;;;;2.58;2.38;;;9.40;99.90;;;;;;6257710;23;20012;-87
2022/11/04 01:33:10;;;;;;;2.55;2.35;;;9.30;99.90;;;;;;6245995;23;20071;-88
2022/11/04 01:35:40;;;;;;;5.22;1.77;;;9.20;99.90;;;;;;6251631;22;20027;-89
2022/11/04 01:38:21;;;;;;;4.22;3.22;;;9.10;99.90;;;;;;6258176;23;20023;-89
2022/11/04 01:40:52;;;;;;;7.18;3.22;;;8.90;99.90;;;;;;6181935;23;20031;-88
2022/11/04 01:43:22;;;;;;;5.30;1.60;;;8.90;99.90;;;;;;6195192;23;20317;-86
2022/11/04 01:46:02;;;;;;;2.38;2.17;;;8.90;99.90;;;;;;6257786;23;20462;-90
2022/11/04 01:48:50;;;;;;;2.75;1.92;;;8.80;99.90;;;;;;6216991;23;20035;-87
2022/11/04 01:51:19;;;;;;;3.50;1.85;;;8.80;99.90;;;;;;6194616;23;20020;-88
2022/11/04 01:53:54;;;;;;;5.95;2.38;;;8.80;99.90;;;;;;6230413;23;20023;-87
2022/11/04 01:56:32;;;;;;;1.63;1.52;;;8.70;99.90;;;;;;6248364;23;20024;-90
2022/11/04 01:59:29;;;;;;;2.13;1.40;;;8.70;99.90;;;;;;6214531;23;20035;-90
2022/11/04 02:01:56;;;;;;;1.48;1.30;;;8.60;99.90;;;;;;6230298;23;20016;-87
2022/11/04 02:04:26;;;;;;;3.45;2.17;;;8.50;99.90;;;;;;6194317;23;20019;-89
2022/11/04 02:07:05;;;;;;;2.17;1.23;;;8.60;99.90;;;;;;6253017;23;20020;-86
2022/11/04 02:09:35;;;;;;;2.30;1.45;;;8.60;99.90;;;;;;6241108;23;20444;-88
2022/11/04 02:14:54;;;;;;;2.10;1.90;;;8.50;99.90;;;;;;6253995;23;20325;-88
2022/11/04 02:17:40;;;;;;;2.07;1.30;;;8.50;99.90;;;;;;6170683;23;20016;-87
2022/11/04 02:20:31;;;;;;;3.60;2.90;;;8.40;99.90;;;;;;6248550;22;20486;-87
2022/11/04 02:23:33;;;;;;;1.58;1.20;;;8.50;99.90;;;;;;6226834;23;20024;-87
2022/11/04 02:26:42;;;;;;;2.50;1.77;;;8.40;99.90;;;;;;6256560;23;20014;-88
2022/11/04 02:29:25;;;;;;;1.15;1.10;;;8.30;99.90;;;;;;6183319;23;20024;-87
2022/11/04 02:32:30;;;;;;;1.13;1.00;;;8.30;99.90;;;;;;6218934;23;20450;-86
2022/11/04 02:35:07;;;;;;;2.30;1.80;;;8.20;99.90;;;;;;6216358;23;20016;-87
2022/11/04 02:37:41;;;;;;;1.05;0.85;;;8.20;99.90;;;;;;6229876;23;20016;-87
2022/11/04 02:40:31;;;;;;;3.53;1.10;;;8.20;99.90;;;;;;6221763;23;20031;-88
2022/11/04 02:43:19;;;;;;;0.85;0.82;;;8.20;99.90;;;;;;6228119;22;20016;-87
2022/11/04 02:45:50;;;;;;;2.13;1.00;;;8.20;99.90;;;;;;6256478;23;20023;-87
2022/11/04 02:48:34;;;;;;;1.95;1.30;;;8.20;99.90;;;;;;6220508;23;20020;-88
2022/11/04 02:51:04;;;;;;;1.00;0.90;;;8.10;99.90;;;;;;6226371;23;20024;-86
2022/11/04 02:53:40;;;;;;;2.15;1.50;;;8.20;99.90;;;;;;6255978;23;20435;-86
2022/11/04 02:56:10;;;;;;;0.70;0.70;;;8.10;99.90;;;;;;6221438;23;20023;-86
2022/11/04 02:58:43;;;;;;;1.25;1.15;;;8.10;99.90;;;;;;6202807;22;20020;-86
2022/11/04 03:01:17;;;;;;;0.90;0.90;;;8.10;99.90;;;;;;6199341;23;20019;-86
2022/11/04 03:03:50;;;;;;;0.75;0.75;;;8.10;99.90;;;;;;6223571;23;20024;-87
2022/11/04 03:06:23;;;;;;;1.05;0.95;;;8.10;99.90;;;;;;6204643;23;20012;-87
2022/11/04 03:08:55;;;;;;;1.17;1.08;;;8.10;99.90;;;;;;6218284;23;20027;-88
2022/11/04 03:11:26;;;;;;;5.45;2.30;;;8.10;99.90;;;;;;6224811;23;20039;-86
2022/11/04 03:14:09;;;;;;;0.82;0.82;;;8.10;99.90;;;;;;6230763;23;20016;-87
2022/11/04 03:16:37;;;;;;;1.88;1.05;;;8.10;99.90;;;;;;6179635;23;20032;-87
2022/11/04 03:19:12;;;;;;;1.55;0.90;;;8.10;99.90;;;;;;6193658;23;20351;-87
2022/11/04 03:21:54;;;;;;;3.67;1.08;;;8.10;99.90;;;;;;6229790;23;20016;-87
2022/11/04 03:24:21;;;;;;;1.10;0.90;;;8.10;99.90;;;;;;6247020;22;20024;-87
2022/11/04 03:26:59;;;;;;;1.80;1.60;;;8.10;99.90;;;;;;6252993;23;20023;-87
2022/11/04 03:29:36;;;;;;;0.90;0.90;;;8.10;99.90;;;;;;6229714;23;20016;-87
2022/11/04 05:48:00;;;;;;;1.20;0.70;;;7.70;99.90;;;;;;6125635;22;20042;-90
2022/11/04 05:50:30;;;;;;;1.48;1.38;;;7.70;99.90;;;;;;6251872;22;20458;-93
2022/11/04 05:52:58;;;;;;;1.05;0.98;;;7.70;99.90;;;;;;6225888;22;20027;-89
2022/11/04 05:55:29;;;;;;;0.60;0.60;;;7.60;99.90;;;;;;6249171;22;20443;-87
2022/11/04 05:57:58;;;;;;;0.93;0.85;;;7.60;99.90;;;;;;6250520;22;20019;-88
2022/11/04 06:00:26;;;;;;;2.83;0.82;;;7.60;99.90;;;;;;6251512;22;20016;-88
2022/11/04 06:02:57;;;;;;;1.33;0.68;;;7.50;99.90;;;;;;6284784;22;20027;-89
2022/11/04 06:05:26;;;;;;;0.73;0.68;;;7.40;99.90;;;;;;6286364;22;20019;-89
2022/11/04 06:07:55;;;;;;;1.25;0.82;;;7.50;99.90;;;;;;6249451;22;20023;-89
2022/11/04 06:10:25;;;;;;;0.90;0.75;;;7.40;99.90;;;;;;6286494;22;20015;-89
2022/11/04 06:12:52;;;;;;;1.15;0.80;;;7.40;99.90;;;;;;6287653;22;20008;-88
2022/11/04 06:15:20;;;;;;;0.93;0.85;;;7.40;99.90;;;;;;6282815;22;20020;-87
2022/11/04 06:17:47;;;;;;;0.80;0.70;;;7.50;99.90;;;;;;6285594;22;20320;-87
2022/11/04 06:20:15;;;;;;;0.95;0.85;;;7.40;99.90;;;;;;6278989;22;20027;-87
2022/11/04 06:22:42;;;;;;;6.82;1.30;;;7.40;99.90;;;;;;6274715;22;20027;-86
2022/11/04 06:25:10;;;;;;;0.68;0.68;;;7.30;99.90;;;;;;6287320;22;20018;-87
2022/11/04 06:27:38;;;;;;;1.08;0.98;;;7.30;99.90;;;;;;6274000;22;20016;-86
2022/11/04 06:30:06;;;;;;;1.25;0.80;;;7.30;99.90;;;;;;6285609;22;20012;-88
2022/11/04 06:32:33;;;;;;;0.52;0.52;;;7.20;99.90;;;;;;6277213;22;20016;-86
2022/11/04 06:35:01;;;;;;;0.60;0.60;;;7.30;99.90;;;;;;6283969;22;20312;-86
2022/11/04 06:37:29;;;;;;;0.65;0.65;;;7.30;99.90;;;;;;6286967;22;20012;-87
2022/11/04 06:39:56;;;;;;;1.33;1.23;;;7.30;99.90;;;;;;6280210;22;20027;-86
2022/11/04 06:42:25;;;;;;;1.90;1.67;;;7.30;99.90;;;;;;6286053;22;20018;-86
2022/11/04 06:44:53;;;;;;;0.93;0.60;;;7.30;99.90;;;;;;6285532;22;20027;-87
2022/11/04 06:47:20;;;;;;;1.35;0.80;;;7.20;99.90;;;;;;6280520;22;20030;-88
2022/11/04 06:49:54;;;;;;;1.42;0.80;;;7.10;99.90;;;;;;6250370;22;20015;-88
2022/11/04 06:52:25;;;;;;;0.73;0.73;;;7.20;99.90;;;;;;6248417;22;20047;-88
2022/11/04 06:54:52;;;;;;;1.17;0.70;;;7.20;99.90;;;;;;6249182;22;20016;-87
2022/11/04 06:57:22;;;;;;;4.50;1.15;;;7.10;99.90;;;;;;6275069;22;20063;-88
2022/11/04 06:59:53;;;;;;;1.02;0.90;;;7.10;99.90;;;;;;6249138;22;20020;-88
2022/11/04 07:02:20;;;;;;;1.40;1.33;;;7.10;99.90;;;;;;6285776;22;20023;-88
2022/11/04 07:04:48;;;;;;;1.67;1.58;;;7.20;99.90;;;;;;6274251;22;20027;-88
2022/11/04 07:07:16;;;;;;;1.20;1.10;;;7.10;99.90;;;;;;6243766;23;20347;-88
2022/11/04 07:09:43;;;;;;;7.13;1.05;;;7.10;99.90;;;;;;6219139;23;20020;-87
2022/11/04 07:12:11;;;;;;;0.82;0.70;;;7.10;99.90;;;;;;6243523;23;20031;-88
2022/11/04 07:14:39;;;;;;;0.85;0.70;;;7.20;99.90;;;;;;6243928;22;20020;-89
2022/11/04 07:17:07;;;;;;;2.13;0.80;;;7.10;99.90;;;;;;6244068;23;20012;-89
2022/11/04 07:19:34;;;;;;;1.17;1.05;;;7.10;99.90;;;;;;6243787;23;20028;-88
2022/11/04 07:22:22;;;;;;;1.17;0.90;;;7.10;99.90;;;;;;6256018;23;20015;-89
2022/11/04 07:24:49;;;;;;;0.75;0.70;;;7.00;99.90;;;;;;6192772;23;20050;-88
2022/11/04 07:27:17;;;;;;;0.88;0.82;;;7.10;99.90;;;;;;6214451;23;20035;-89
2022/11/04 07:29:47;;;;;;;1.25;0.70;;;7.00;99.90;;;;;;6280266;22;20460;-88
2022/11/04 07:32:18;;;;;;;1.25;1.15;;;7.00;99.90;;;;;;6243684;23;20027;-88
2022/11/04 07:34:45;;;;;;;0.90;0.90;;;6.90;99.90;;;;;;6243886;22;20312;-88
2022/11/04 07:37:13;;;;;;;4.32;1.30;;;6.90;99.90;;;;;;6218840;23;20012;-88
2022/11/04 07:51:03;;;;;;;1.33;1.08;;;6.90;99.90;;;;;;6259592;22;20493;-93
2022/11/04 07:58:05;;;;;;;0.77;0.77;;;6.90;99.90;;;;;;6253815;22;20064;-95
2022/11/04 08:01:09;;;;;;;0.95;0.85;;;6.90;99.90;;;;;;6192133;23;20019;-94
2022/11/04 08:04:07;;;;;;;1.27;0.75;;;6.90;99.90;;;;;;6182664;23;20298;-93
2022/11/04 08:07:51;;;;;;;0.98;0.70;;;6.80;99.90;;;;;;6200126;23;20028;-94
2022/11/04 08:12:05;;;;;;;1.58;1.30;;;6.90;99.90;;;;;;6212945;23;20026;-94
2022/11/04 08:15:10;;;;;;;0.93;0.93;;;6.80;99.90;;;;;;6162971;23;20024;-94
2022/11/04 08:23:15;;;;;;;;;;;;;;;;;;;;;
2022/11/04 08:38:20;;;;;;;5.50;1.63;;;6.90;99.90;;;;;;6240742;22;20024;-91
2022/11/04 08:43:01;;;;;;;0.95;0.95;;;7.00;99.90;;;;;;6127654;23;20021;-90
2022/11/04 08:45:31;;;;;;;1.67;1.60;;;6.90;99.90;;;;;;6069638;23;20032;-93
2022/11/04 08:55:38;;;;;;;0.65;0.65;;;6.70;99.90;;;;;;6284490;22;20027;-93
2022/11/04 08:58:17;;;;;;;0.93;0.82;;;6.60;99.90;;;;;;6131054;23;20017;-94
2022/11/04 09:03:11;;;;;;;0.77;0.70;;;6.60;99.90;;;;;;6277243;22;20023;-91
2022/11/04 09:11:44;;;;;;;0.85;0.85;;;6.50;99.90;;;;;;6269766;22;20700;-94
2022/11/04 09:14:51;;;;;;;0.50;0.50;;;6.60;99.90;;;;;;6227021;22;20012;-91
2022/11/04 12:08:53;;;;;;;1.30;1.20;;;6.50;99.90;;;;;;6243991;22;20023;-91
2022/11/04 12:28:57;;;;;;;3.15;1.02;;;6.50;99.90;;;;;;6263865;22;20023;-87
2022/11/04 12:45:36;;;;;;;0.65;0.65;;;6.70;99.90;;;;;;6047606;23;20705;-89
2022/11/04 12:49:10;;;;;;;4.45;0.90;;;6.60;99.90;;;;;;6076752;23;20030;-89
2022/11/04 13:26:41;;;;;;;2.97;1.52;;;6.40;99.90;;;;;;6208096;23;20310;-93
2022/11/04 13:29:31;;;;;;;1.33;1.17;;;6.40;99.90;;;;;;6175248;23;20029;-89
2022/11/04 13:32:52;;;;;;;;;;;;;;;;;;;;;
2022/11/04 13:36:32;;;;;;;1.20;1.02;;;6.40;99.90;;;;;;6091269;23;20033;-90
2022/11/04 13:51:04;;;;;;;2.05;1.00;;;6.40;99.90;;;;;;6214125;23;20032;-86
2022/11/04 13:59:36;;;;;;;1.10;1.00;;;6.50;99.90;;;;;;6138934;23;20021;-87
2022/11/04 14:07:22;;;;;;;0.75;0.75;;;6.50;99.90;;;;;;6042519;23;20029;-89
2022/11/04 14:10:38;;;;;;;1.95;1.80;;;6.30;99.90;;;;;;6043880;23;20025;-87
2022/11/04 14:13:36;;;;;;;2.60;0.90;;;6.40;99.90;;;;;;6098069;23;20032;-89
2022/11/04 14:16:16;;;;;;;2.33;1.10;;;6.30;99.90;;;;;;6214027;23;20032;-87
2022/11/04 14:18:49;;;;;;;0.90;0.90;;;6.20;99.90;;;;;;6145822;23;20362;-89
2022/11/04 14:21:24;;;;;;;0.77;0.77;;;6.20;99.90;;;;;;6195706;23;20013;-88
2022/11/04 14:24:12;;;;;;;1.17;1.10;;;6.20;99.90;;;;;;6162327;23;20029;-89
2022/11/04 14:26:47;;;;;;;0.95;0.90;;;6.20;99.90;;;;;;6159036;23;20020;-88
2022/11/04 14:29:24;;;;;;;1.10;1.00;;;6.20;99.90;;;;;;6159388;23;20035;-89
2022/11/04 14:31:57;;;;;;;1.58;1.48;;;6.20;99.90;;;;;;6163673;23;20028;-86
2022/11/04 14:34:34;;;;;;;0.80;0.80;;;6.20;99.90;;;;;;6163337;23;20015;-81
2022/11/04 14:37:21;;;;;;;0.90;0.90;;;6.20;99.90;;;;;;6224738;23;20016;-80
2022/11/04 14:40:24;;;;;;;1.00;0.90;;;6.10;99.90;;;;;;6185565;23;20029;-80
2022/11/04 14:42:59;;;;;;;2.13;1.10;;;6.10;99.90;;;;;;6162694;23;20401;-91
2022/11/04 14:45:38;;;;;;;1.55;0.90;;;6.20;99.90;;;;;;6140171;23;20025;-88
2022/11/04 14:48:17;;;;;;;1.20;1.10;;;6.20;99.90;;;;;;6187604;23;20343;-89
2022/11/04 14:50:57;;;;;;;2.17;1.20;;;6.10;99.90;;;;;;6170093;23;20059;-87
2022/11/04 15:07:45;;;;;;;1.00;1.00;;;6.10;99.90;;;;;;6252081;22;20031;-88
2022/11/04 15:10:23;;;;;;;1.02;0.90;;;6.00;99.90;;;;;;6318004;22;20330;-87
2022/11/04 15:12:56;;;;;;;3.40;1.38;;;6.10;99.90;;;;;;6290069;22;20516;-85
2022/11/04 15:15:49;;;;;;;1.33;1.00;;;6.00;99.90;;;;;;6228502;22;20031;-88
2022/11/04 15:18:25;;;;;;;2.58;1.15;;;6.00;99.90;;;;;;6254437;22;20431;-87
2022/11/04 15:21:12;;;;;;;3.92;0.80;;;5.90;99.90;;;;;;6279102;22;20442;-88
2022/11/04 15:24:05;;;;;;;1.25;1.15;;;5.90;99.90;;;;;;6232983;22;20316;-86
2022/11/04 15:26:44;;;;;;;1.33;0.77;;;5.80;99.90;;;;;;6228778;22;20327;-87
2022/11/04 15:29:23;;;;;;;5.18;2.55;;;5.80;99.90;;;;;;6266025;22;20023;-89
2022/11/04 15:32:02;;;;;;;0.80;0.80;;;5.90;99.90;;;;;;6283464;22;20027;-87
2022/11/04 15:34:36;;;;;;;1.05;0.98;;;5.80;99.90;;;;;;6252470;22;20360;-87
2022/11/04 15:37:09;;;;;;;1.50;1.40;;;5.90;99.90;;;;;;6253561;22;20016;-85
2022/11/04 15:43:24;;;;;;;1.90;1.77;;;5.80;99.90;;;;;;6259228;22;20031;-85
2022/11/04 15:46:03;;;;;;;5.65;1.02;;;5.80;99.90;;;;;;6223578;22;20041;-85
2022/11/04 15:49:23;;;;;;;3.55;1.73;;;5.70;99.90;;;;;;6190869;22;20027;-86
2022/11/04 15:52:28;;;;;;;0.98;0.98;;;5.70;99.90;;;;;;6171611;23;20028;-85
2022/11/04 15:55:48;;;;;;;1.57;1.00;;;5.70;99.90;;;;;;6198177;23;20020;-85
2022/11/04 15:58:30;;;;;;;1.60;1.13;;;5.60;99.90;;;;;;6216012;22;20554;-85
2022/11/04 16:01:04;;;;;;;1.15;1.13;;;5.60;99.90;;;;;;6235327;22;20024;-85
2022/11/04 16:03:40;;;;;;;1.23;1.20;;;5.60;99.90;;;;;;6246918;22;20324;-85
2022/11/04 16:06:33;;;;;;;1.27;1.15;;;5.60;99.90;;;;;;6201433;22;20020;-84
2022/11/04 16:09:32;;;;;;;1.02;1.02;;;5.60;99.90;;;;;;6174386;22;20026;-85
2022/11/04 16:12:15;;;;;;;0.90;0.90;;;5.50;99.90;;;;;;6217678;22;20020;-85
2022/11/04 16:14:50;;;;;;;1.20;1.02;;;5.50;99.90;;;;;;6218830;22;20020;-84
2022/11/04 16:17:24;;;;;;;1.40;1.02;;;5.50;99.90;;;;;;6249220;22;20030;-85
2022/11/04 16:20:33;;;;;;;1.40;1.30;;;5.50;99.90;;;;;;6252116;22;20346;-86
2022/11/04 16:23:24;;;;;;;0.82;0.82;;;5.50;99.90;;;;;;6192557;22;20030;-85
2022/11/04 16:26:06;;;;;;;1.10;1.10;;;5.40;99.90;;;;;;6226004;22;20019;-85
2022/11/04 16:29:17;;;;;;;1.00;1.00;;;5.40;99.90;;;;;;6180784;22;20032;-85
2022/11/04 16:32:25;;;;;;;1.75;1.50;;;5.40;99.90;;;;;;6200023;23;20028;-85
2022/11/04 16:35:46;;;;;;;1.10;1.00;;;5.40;99.90;;;;;;6180645;23;20046;-85
2022/11/04 16:38:23;;;;;;;1.75;1.52;;;5.30;99.90;;;;;;6231194;22;20019;-86
2022/11/04 16:40:53;;;;;;;1.23;1.13;;;5.40;99.90;;;;;;6261558;22;20027;-87
2022/11/04 16:43:21;;;;;;;1.25;1.25;;;5.40;99.90;;;;;;6227982;22;20019;-85
2022/11/04 16:45:49;;;;;;;1.85;1.35;;;5.20;99.90;;;;;;6287906;22;20020;-83
2022/11/04 16:48:22;;;;;;;1.40;1.40;;;5.20;99.90;;;;;;6252086;22;20031;-83
2022/11/04 16:50:50;;;;;;;4.22;1.67;;;5.10;99.90;;;;;;6250421;22;20446;-83
2022/11/04 16:53:18;;;;;;;2.88;1.70;;;5.10;99.90;;;;;;6287903;22;20024;-83
2022/11/04 16:55:54;;;;;;;2.58;2.35;;;5.00;99.90;;;;;;6198807;22;20840;-83
2022/11/04 16:58:21;;;;;;;1.90;1.80;;;4.90;99.90;;;;;;6260652;22;20016;-83
2022/11/04 17:00:49;;;;;;;1.98;1.88;;;4.90;99.90;;;;;;6249859;22;20027;-83
2022/11/04 17:03:20;;;;;;;1.83;1.73;;;4.90;99.90;;;;;;6283737;22;20470;-84
2022/11/04 17:05:55;;;;;;;2.67;2.50;;;4.80;99.90;;;;;;6250416;22;20019;-85
2022/11/04 17:08:23;;;;;;;1.83;1.73;;;4.80;99.90;;;;;;6251813;22;20020;-83
2022/11/04 17:10:51;;;;;;;2.08;1.88;;;4.80;99.90;;;;;;6224875;22;20023;-83
2022/11/04 17:13:18;;;;;;;2.00;1.90;;;4.80;99.90;;;;;;6287820;22;20023;-82
2022/11/04 17:15:46;;;;;;;2.42;2.22;;;4.80;99.90;;;;;;6281202;22;20655;-83
2022/11/04 17:18:15;;;;;;;2.00;1.88;;;4.80;99.90;;;;;;6287954;22;20389;-84
2022/11/04 17:20:50;;;;;;;2.88;2.20;;;4.80;99.90;;;;;;6277214;22;20020;-83
2022/11/04 17:23:17;;;;;;;2.38;2.17;;;4.70;99.90;;;;;;6269886;22;20051;-83
2022/11/04 17:25:45;;;;;;;3.17;2.97;;;4.70;99.90;;;;;;6260542;22;20435;-83
2022/11/04 17:28:13;;;;;;;2.58;2.13;;;4.80;99.90;;;;;;6252166;22;20024;-83
2022/11/04 17:30:41;;;;;;;2.60;2.25;;;4.80;99.90;;;;;;6258611;22;20015;-82
2022/11/04 17:33:16;;;;;;;2.38;2.28;;;4.80;99.90;;;;;;6260662;22;20016;-83
2022/11/04 17:35:47;;;;;;;2.20;2.05;;;4.80;99.90;;;;;;6280769;22;20024;-82
2022/11/04 17:38:15;;;;;;;1.83;1.73;;;4.80;99.90;;;;;;6287451;22;20026;-82
2022/11/04 17:46:34;;;;;;;5.47;2.20;;;4.90;99.90;;;;;;6287567;22;20027;-85
2022/11/04 17:49:09;;;;;;;3.13;2.63;;;4.80;99.90;;;;;;6234457;22;20031;-84
2022/11/04 17:51:39;;;;;;;2.58;2.00;;;4.80;99.90;;;;;;6281686;22;20347;-83
2022/11/04 17:54:08;;;;;;;2.10;1.95;;;4.70;99.90;;;;;;6285323;22;20015;-83
2022/11/04 17:56:36;;;;;;;2.20;1.85;;;4.70;99.90;;;;;;6249361;22;20020;-83
2022/11/04 17:59:04;;;;;;;2.40;2.20;;;4.70;99.90;;;;;;6283783;22;20016;-83
2022/11/04 18:01:39;;;;;;;4.03;2.72;;;4.70;99.90;;;;;;6287586;22;20406;-82
2022/11/04 18:04:11;;;;;;;10.13;7.22;;;4.80;99.90;;;;;;6252488;22;20024;-83
2022/11/04 18:06:38;;;;;;;1.77;1.67;;;4.70;99.90;;;;;;6285455;22;20435;-83
2022/11/04 18:09:07;;;;;;;7.68;2.13;;;4.70;99.90;;;;;;6287493;22;20034;-83
2022/11/04 18:14:23;;;;;;;2.10;2.00;;;4.60;99.90;;;;;;6259518;22;20326;-82
2022/11/04 18:16:51;;;;;;;3.17;3.00;;;4.60;99.90;;;;;;6224104;22;20012;-82
2022/11/04 18:19:22;;;;;;;2.67;2.47;;;4.50;99.90;;;;;;6282628;22;20374;-82
2022/11/04 18:21:50;;;;;;;4.78;3.03;;;4.60;99.90;;;;;;6287157;22;20008;-83
2022/11/04 18:24:20;;;;;;;3.28;3.03;;;4.50;99.90;;;;;;6199016;22;20035;-86
2022/11/04 18:26:53;;;;;;;3.90;3.60;;;4.60;99.90;;;;;;6199676;22;20442;-85
2022/11/04 18:29:25;;;;;;;5.38;3.15;;;4.40;99.90;;;;;;6224804;22;20030;-86
2022/11/04 18:31:55;;;;;;;4.95;2.88;;;4.40;99.90;;;;;;6253283;22;20034;-85
2022/11/04 18:34:25;;;;;;;4.45;3.63;;;4.50;99.90;;;;;;6198640;22;20023;-85
2022/11/04 18:36:54;;;;;;;3.55;2.63;;;4.40;99.90;;;;;;6224704;22;20016;-84
2022/11/04 18:39:25;;;;;;;2.53;2.33;;;4.30;99.90;;;;;;6247740;22;20046;-85
2022/11/04 18:41:53;;;;;;;3.20;2.97;;;4.30;99.90;;;;;;6223415;22;20034;-86
2022/11/04 18:44:24;;;;;;;3.58;2.80;;;4.30;99.90;;;;;;6222642;22;20028;-87
2022/11/04 18:46:51;;;;;;;3.53;2.70;;;4.20;99.90;;;;;;6284676;22;20026;-86
2022/11/04 18:49:21;;;;;;;3.05;2.85;;;4.20;99.90;;;;;;6224975;22;20016;-86
2022/11/04 18:51:51;;;;;;;3.33;2.80;;;4.00;99.90;;;;;;6198476;22;20753;-86
2022/11/04 18:54:19;;;;;;;2.70;2.45;;;4.00;99.90;;;;;;6286983;22;20023;-86
2022/11/04 18:56:47;;;;;;;4.05;3.63;;;4.00;99.90;;;;;;6198621;22;20024;-86
2022/11/04 18:59:17;;;;;;;17.40;3.22;;;3.90;99.90;;;;;;6255949;22;20031;-86
2022/11/04 19:01:45;;;;;;;3.55;3.25;;;3.90;99.90;;;;;;6199708;22;20011;-86
2022/11/04 19:04:13;;;;;;;3.72;3.15;;;3.70;99.90;;;;;;6222957;22;20020;-86
2022/11/04 19:06:42;;;;;;;3.00;2.75;;;3.70;99.90;;;;;;6198130;22;20016;-86
2022/11/04 19:09:12;;;;;;;3.70;3.40;;;3.60;99.90;;;;;;6224557;22;20514;-86
2022/11/04 19:14:49;;;;;;;13.93;2.95;;;3.50;99.90;;;;;;6207803;22;20024;-86
2022/11/04 19:17:18;;;;;;;14.55;4.13;;;3.30;99.90;;;;;;6260065;22;20015;-86
2022/11/04 19:19:46;;;;;;;15.02;3.85;;;3.20;99.90;;;;;;6218498;22;20023;-86
2022/11/04 19:22:19;;;;;;;2.85;2.63;;;3.10;99.90;;;;;;6200294;22;20022;-86
2022/11/04 19:24:59;;;;;;;4.97;4.57;;;3.00;99.90;;;;;;6225171;22;20030;-87
2022/11/04 19:27:32;;;;;;;3.55;2.92;;;3.10;99.90;;;;;;6200001;22;20027;-86
2022/11/04 19:30:04;;;;;;;3.03;2.78;;;3.20;99.90;;;;;;6259731;22;20423;-86
2022/11/04 19:32:36;;;;;;;2.67;2.42;;;3.30;99.90;;;;;;6249757;22;20443;-85
2022/11/04 19:35:06;;;;;;;3.92;3.63;;;3.40;99.90;;;;;;6282242;22;20028;-85
2022/11/04 19:37:44;;;;;;;3.88;2.92;;;3.30;99.90;;;;;;6224069;22;20028;-84
2022/11/04 19:40:11;;;;;;;3.38;3.08;;;3.20;99.90;;;;;;6222839;22;20039;-82
2022/11/04 19:45:25;;;;;;;20.52;3.22;;;2.90;99.90;;;;;;6223893;22;20022;-82
2022/11/04 19:47:53;;;;;;;49.28;4.35;;;2.80;99.90;;;;;;6279314;22;20031;-84
2022/11/04 19:50:22;;;;;;;49.10;4.30;;;2.70;99.90;;;;;;6259781;22;20510;-84
2022/11/04 19:52:50;;;;;;;10.55;2.28;;;2.60;99.90;;;;;;6275561;22;20327;-82
2022/11/04 19:55:18;;;;;;;8.05;3.35;;;2.50;99.90;;;;;;6282034;22;20031;-84
2022/11/04 19:57:46;;;;;;;24.00;6.30;;;2.50;99.90;;;;;;6248955;22;20016;-84
2022/11/04 20:00:15;;;;;;;7.45;3.00;;;2.50;99.90;;;;;;6238752;22;20031;-87
2022/11/04 20:02:43;;;;;;;4.40;3.30;;;2.60;99.90;;;;;;6197863;22;20020;-87
2022/11/04 20:05:12;;;;;;;6.15;3.10;;;2.60;99.90;;;;;;6225720;22;20015;-87
2022/11/04 20:07:58;;;;;;;11.20;3.08;;;2.60;99.90;;;;;;6200320;22;20347;-85
2022/11/04 20:11:22;;;;;;;26.35;3.95;;;2.50;99.90;;;;;;6184891;22;20093;-86
2022/11/04 20:14:27;;;;;;;;;;;;;;;;;;;;;
2022/11/04 20:17:18;;;;;;;13.70;2.60;;;2.40;99.90;;;;;;6183907;22;20046;-86
2022/11/04 20:20:17;;;;;;;43.63;5.90;;;2.40;99.90;;;;;;6218562;22;20020;-85
2022/11/04 20:22:45;;;;;;;21.70;3.08;;;2.40;99.90;;;;;;6242218;22;20012;-85
2022/11/04 20:25:18;;;;;;;33.70;4.13;;;2.40;99.90;;;;;;6240698;22;20034;-84
2022/11/04 20:27:45;;;;;;;21.08;4.10;;;2.30;99.90;;;;;;6229767;22;20027;-84
2022/11/04 20:30:13;;;;;;;13.52;2.95;;;2.20;99.90;;;;;;6235961;22;20020;-82
2022/11/04 20:32:41;;;;;;;23.63;4.28;;;2.20;99.90;;;;;;6225380;22;20027;-84
2022/11/04 20:35:08;;;;;;;6.85;3.80;;;2.20;99.90;;;;;;6224844;22;20019;-86
2022/11/04 20:37:37;;;;;;;21.15;5.50;;;2.20;99.90;;;;;;6202230;22;20012;-87
2022/11/04 20:40:05;;;;;;;12.13;3.72;;;2.10;99.90;;;;;;6281392;22;20020;-85
2022/11/04 20:42:36;;;;;;;11.73;5.03;;;2.10;99.90;;;;;;6285620;22;20020;-85
2022/11/04 20:45:08;;;;;;;3.33;3.13;;;2.10;99.90;;;;;;6262880;22;20015;-88
2022/11/04 20:47:42;;;;;;;3.15;2.95;;;2.10;99.90;;;;;;6282394;22;20024;-89
2022/11/04 20:50:27;;;;;;;3.38;3.15;;;2.10;99.90;;;;;;6253986;22;20023;-83
2022/11/04 20:52:54;;;;;;;11.38;4.63;;;2.10;99.90;;;;;;6289258;22;20323;-84
2022/11/04 20:55:22;;;;;;;4.90;3.75;;;2.10;99.90;;;;;;6249643;22;20027;-83
2022/11/04 20:57:49;;;;;;;4.47;3.95;;;2.10;99.90;;;;;;6287536;22;20703;-83
2022/11/04 21:00:20;;;;;;;4.10;3.78;;;2.10;99.90;;;;;;6279075;22;20030;-83
2022/11/04 21:02:47;;;;;;;4.22;3.92;;;2.20;99.90;;;;;;6285828;22;20016;-83
2022/11/04 21:05:14;;;;;;;3.75;3.45;;;2.20;99.90;;;;;;6250581;22;20026;-83
2022/11/04 21:07:42;;;;;;;3.95;3.60;;;2.10;99.90;;;;;;6223822;23;20020;-83
2022/11/04 21:10:09;;;;;;;3.92;3.60;;;2.10;99.90;;;;;;6278022;22;20012;-83
2022/11/04 21:12:37;;;;;;;8.18;4.47;;;2.10;99.90;;;;;;6277540;22;20022;-83
2022/11/04 21:15:39;;;;;;;4.35;3.95;;;2.10;99.90;;;;;;6224629;22;20020;-83
2022/11/04 21:17:55;;;;;;;6.13;4.95;;;2.00;99.90;;;;;;6251033;22;20019;-83
2022/11/04 21:20:22;;;;;;;5.40;4.47;;;2.20;99.90;;;;;;6278658;22;20501;-83
2022/11/04 21:22:50;;;;;;;7.30;5.38;;;2.40;99.90;;;;;;6285392;22;20339;-83
2022/11/04 21:25:53;;;;;;;4.22;3.88;;;2.50;99.90;;;;;;6250566;22;20018;-83
2022/11/04 21:28:21;;;;;;;3.85;3.42;;;2.50;99.90;;;;;;6198515;22;20023;-83
2022/11/04 21:30:52;;;;;;;5.20;4.70;;;2.60;99.90;;;;;;6224141;22;20039;-83
2022/11/04 21:33:19;;;;;;;4.82;4.43;;;2.60;99.90;;;;;;6287944;22;20011;-82
2022/11/04 21:35:47;;;;;;;4.20;3.90;;;2.70;99.90;;;;;;6199629;22;20020;-83
2022/11/04 21:38:17;;;;;;;4.63;4.22;;;2.70;99.90;;;;;;6260939;22;20008;-84
2022/11/04 21:40:45;;;;;;;4.15;3.75;;;2.70;99.90;;;;;;6249963;22;20027;-82
2022/11/04 21:43:13;;;;;;;3.40;3.10;;;2.70;99.90;;;;;;6197731;22;20019;-85
2022/11/04 21:45:43;;;;;;;5.97;4.15;;;2.70;99.90;;;;;;6287336;22;20026;-82
2022/11/04 21:48:11;;;;;;;6.15;3.70;;;2.70;99.90;;;;;;6277347;22;20028;-82
2022/11/04 21:50:39;;;;;;;5.70;3.55;;;2.80;99.90;;;;;;6249146;22;20016;-84
2022/11/04 21:53:06;;;;;;;4.38;4.10;;;2.70;99.90;;;;;;6287167;22;20443;-82
2022/11/04 21:55:37;;;;;;;3.47;3.17;;;2.40;99.90;;;;;;6248811;22;20345;-83
2022/11/04 21:58:05;;;;;;;3.53;3.25;;;2.20;99.90;;;;;;6197197;22;20015;-83
2022/11/04 22:00:32;;;;;;;3.33;3.13;;;2.20;99.90;;;;;;6250175;22;20023;-83
2022/11/04 22:03:00;;;;;;;3.35;3.13;;;2.00;99.90;;;;;;6256754;22;20027;-83
2022/11/04 22:05:27;;;;;;;5.03;4.35;;;1.90;99.90;;;;;;6286716;22;20016;-83
2022/11/04 22:10:41;;;;;;;2.80;2.50;;;1.90;99.90;;;;;;6258790;22;20447;-83
2022/11/04 22:13:08;;;;;;;4.80;3.10;;;2.10;99.90;;;;;;6199297;22;20027;-83
2022/11/04 22:18:26;;;;;;;3.30;2.85;;;2.40;99.90;;;;;;6223938;22;20019;-83